Time;durP1;ratioP1;P1;durP2;ratioP2;P2;SDS_P1;SDS_P2;PMS_P1;PMS_P2;Temp;Humidity;BMP_temperature;BMP_pressure;BME280_temperature;BME280_humidity;BME280_pressure;Samples;Min_cycle;Max_cycle;Signal;HPM_P1;HPM_P2
2023/02/10 00:01:08;;;;;;;9.48;8.35;;;;;;;;;;4990904;28;20464;-77
2023/02/10 00:03:34;;;;;;;6.10;5.50;;;;;;;;;;4991063;28;20053;-76
2023/02/10 00:06:01;;;;;;;8.40;6.45;;;;;;;;;;4990585;28;20045;-77
2023/02/10 00:08:27;;;;;;;6.72;4.60;;;;;;;;;;4990871;28;20048;-77
2023/02/10 00:10:57;;;;;;;6.90;6.30;;;;;;;;;;4973272;28;20142;-78
2023/02/10 00:13:23;;;;;;;6.15;5.55;;;;;;;;;;4991887;28;20109;-77
2023/02/10 00:15:49;;;;;;;6.97;6.20;;;;;;;;;;4974139;28;20046;-77
2023/02/10 00:18:15;;;;;;;4.55;4.25;;;;;;;;;;4991722;28;20501;-76
2023/02/10 00:20:41;;;;;;;4.43;4.13;;;;;;;;;;4974352;28;20054;-76
2023/02/10 00:23:07;;;;;;;3.85;3.58;;;;;;;;;;4991634;28;20089;-76
2023/02/10 00:25:36;;;;;;;7.13;6.30;;;;;;;;;;4975969;28;20042;-75
2023/02/10 00:28:03;;;;;;;5.60;5.10;;;;;;;;;;5010045;28;20030;-72
2023/02/10 00:30:29;;;;;;;6.85;6.35;;;;;;;;;;4972773;28;20472;-76
2023/02/10 00:32:55;;;;;;;8.85;5.55;;;;;;;;;;4972546;28;20038;-74
2023/02/10 00:35:21;;;;;;;5.20;4.70;;;;;;;;;;4990156;28;20061;-75
2023/02/10 00:37:47;;;;;;;5.70;5.20;;;;;;;;;;4972653;28;20488;-75
2023/02/10 00:40:13;;;;;;;4.57;4.28;;;;;;;;;;4990348;28;20042;-75
2023/02/10 00:42:39;;;;;;;6.10;5.60;;;;;;;;;;5001031;28;20346;-74
2023/02/10 00:45:06;;;;;;;2.97;2.80;;;;;;;;;;4991739;28;20433;-76
2023/02/10 00:47:32;;;;;;;8.13;5.63;;;;;;;;;;4992226;28;20041;-75
2023/02/10 00:49:59;;;;;;;5.13;4.60;;;;;;;;;;5010111;28;20099;-75
2023/02/10 00:52:25;;;;;;;7.10;5.38;;;;;;;;;;5010295;28;20053;-75
2023/02/10 00:54:52;;;;;;;5.90;4.93;;;;;;;;;;5010168;28;20273;-77
2023/02/10 00:57:18;;;;;;;5.38;4.88;;;;;;;;;;5011031;28;20040;-77
2023/02/10 00:59:44;;;;;;;8.32;7.63;;;;;;;;;;5020976;28;20029;-76
2023/02/10 01:02:10;;;;;;;7.70;7.10;;;;;;;;;;5004297;28;20025;-76
2023/02/10 01:04:37;;;;;;;4.50;4.10;;;;;;;;;;5017833;28;20034;-76
2023/02/10 01:07:03;;;;;;;8.43;7.63;;;;;;;;;;5017792;28;20042;-77
2023/02/10 01:09:30;;;;;;;10.00;8.98;;;;;;;;;;5021720;28;20048;-76
2023/02/10 01:11:56;;;;;;;5.97;5.38;;;;;;;;;;4995979;28;20048;-77
2023/02/10 01:14:40;;;;;;;5.63;5.13;;;;;;;;;;5009885;28;20057;-77
2023/02/10 01:17:07;;;;;;;6.30;5.07;;;;;;;;;;5009418;28;20038;-77
2023/02/10 01:19:34;;;;;;;7.38;6.68;;;;;;;;;;5009748;28;20034;-77
2023/02/10 01:22:00;;;;;;;6.93;5.60;;;;;;;;;;5009256;28;20516;-76
2023/02/10 01:24:26;;;;;;;6.47;5.97;;;;;;;;;;5009389;28;20030;-75
2023/02/10 01:26:52;;;;;;;3.92;3.70;;;;;;;;;;5009126;28;20416;-75
2023/02/10 01:29:18;;;;;;;6.68;6.07;;;;;;;;;;5009494;28;20073;-75
2023/02/10 01:31:44;;;;;;;6.65;5.10;;;;;;;;;;4991614;28;20119;-77
2023/02/10 01:34:11;;;;;;;4.25;3.95;;;;;;;;;;5008977;28;20103;-76
2023/02/10 01:36:37;;;;;;;4.93;4.50;;;;;;;;;;5009175;28;20061;-75
2023/02/10 01:39:03;;;;;;;5.07;4.60;;;;;;;;;;5009115;28;20415;-75
2023/02/10 01:41:30;;;;;;;6.25;5.65;;;;;;;;;;5008986;28;20057;-73
2023/02/10 01:44:00;;;;;;;5.13;4.63;;;;;;;;;;5010485;28;20053;-75
2023/02/10 01:46:27;;;;;;;4.70;4.30;;;;;;;;;;4995411;28;20030;-75
2023/02/10 01:48:53;;;;;;;5.18;4.75;;;;;;;;;;4995044;28;20042;-75
2023/02/10 01:51:20;;;;;;;6.25;4.78;;;;;;;;;;4995482;28;20065;-75
2023/02/10 01:53:46;;;;;;;6.53;5.82;;;;;;;;;;4979126;28;20069;-75
2023/02/10 01:56:12;;;;;;;5.05;4.53;;;;;;;;;;5012279;28;20038;-75
2023/02/10 01:58:41;;;;;;;4.72;4.28;;;;;;;;;;4979343;28;20513;-76
2023/02/10 02:01:07;;;;;;;6.47;5.60;;;;;;;;;;4994924;28;20045;-75
2023/02/10 02:03:33;;;;;;;6.78;5.22;;;;;;;;;;4995211;28;20065;-75
2023/02/10 02:05:59;;;;;;;5.30;4.78;;;;;;;;;;4995227;28;20041;-76
2023/02/10 02:08:27;;;;;;;5.78;5.28;;;;;;;;;;4995463;28;20108;-76
2023/02/10 02:10:56;;;;;;;5.57;5.10;;;;;;;;;;4995464;28;20050;-76
2023/02/10 02:13:40;;;;;;;10.00;6.47;;;;;;;;;;4994915;28;20056;-74
2023/02/10 02:16:36;;;;;;;5.72;5.13;;;;;;;;;;4997541;28;20034;-76
2023/02/10 02:19:20;;;;;;;6.38;5.78;;;;;;;;;;5011862;28;20123;-75
2023/02/10 02:21:46;;;;;;;6.47;5.90;;;;;;;;;;5011912;28;20037;-74
2023/02/10 02:24:27;;;;;;;5.68;4.93;;;;;;;;;;5012086;28;20038;-76
2023/02/10 02:27:05;;;;;;;5.95;5.53;;;;;;;;;;4978386;28;20030;-76
2023/02/10 02:29:32;;;;;;;6.03;5.50;;;;;;;;;;5012478;28;20535;-76
2023/02/10 02:32:02;;;;;;;7.47;6.60;;;;;;;;;;4982766;28;20053;-75
2023/02/10 02:34:28;;;;;;;5.90;5.40;;;;;;;;;;5005471;28;20034;-75
2023/02/10 02:36:58;;;;;;;7.88;5.60;;;;;;;;;;5027779;28;20832;-76
2023/02/10 02:39:26;;;;;;;8.95;8.15;;;;;;;;;;4987904;28;20117;-76
2023/02/10 02:42:18;;;;;;;8.00;7.28;;;;;;;;;;4974788;28;20440;-76
2023/02/10 02:44:45;;;;;;;6.75;6.10;;;;;;;;;;4989385;28;20046;-74
2023/02/10 02:47:25;;;;;;;6.70;5.95;;;;;;;;;;4974633;28;20413;-76
2023/02/10 02:49:57;;;;;;;6.40;5.82;;;;;;;;;;4974433;28;20053;-76
2023/02/10 02:52:27;;;;;;;9.65;6.07;;;;;;;;;;4974942;28;20034;-76
2023/02/10 02:54:56;;;;;;;9.95;6.95;;;;;;;;;;4991982;28;20092;-75
2023/02/10 02:57:22;;;;;;;8.68;6.75;;;;;;;;;;4992158;28;20520;-75
2023/02/10 02:59:54;;;;;;;10.20;8.95;;;;;;;;;;4974790;28;20034;-76
2023/02/10 03:02:21;;;;;;;8.80;7.90;;;;;;;;;;5008609;28;20037;-76
2023/02/10 03:04:48;;;;;;;8.48;7.68;;;;;;;;;;4994122;28;20119;-77
2023/02/10 03:07:14;;;;;;;7.18;6.53;;;;;;;;;;4993864;28;20034;-78
2023/02/10 03:09:41;;;;;;;6.10;5.55;;;;;;;;;;5011635;28;20045;-77
2023/02/10 03:12:07;;;;;;;12.20;8.50;;;;;;;;;;5010360;28;20034;-74
2023/02/10 03:14:33;;;;;;;9.38;8.43;;;;;;;;;;5011331;28;20059;-75
2023/02/10 03:16:59;;;;;;;6.97;6.38;;;;;;;;;;5011384;28;20030;-75
2023/02/10 03:19:25;;;;;;;7.95;6.95;;;;;;;;;;5011859;28;20034;-75
2023/02/10 03:21:51;;;;;;;10.35;8.75;;;;;;;;;;5010598;28;20033;-74
2023/02/10 03:24:18;;;;;;;8.13;7.13;;;;;;;;;;5011570;28;20065;-76
2023/02/10 03:26:44;;;;;;;6.47;5.85;;;;;;;;;;5012990;28;20516;-74
2023/02/10 03:29:10;;;;;;;9.27;8.38;;;;;;;;;;5011476;28;20042;-75
2023/02/10 03:31:36;;;;;;;10.65;8.98;;;;;;;;;;4991751;28;20037;-75
2023/02/10 03:34:03;;;;;;;8.70;7.90;;;;;;;;;;5011057;28;20438;-75
2023/02/10 03:36:29;;;;;;;10.52;9.50;;;;;;;;;;5012032;28;20412;-75
2023/02/10 03:38:55;;;;;;;11.90;9.82;;;;;;;;;;5018666;28;20052;-76
2023/02/10 03:41:21;;;;;;;10.68;9.60;;;;;;;;;;5010811;28;20029;-75
2023/02/10 03:43:47;;;;;;;6.53;5.88;;;;;;;;;;5016168;28;20102;-75
2023/02/10 03:46:13;;;;;;;9.80;7.03;;;;;;;;;;5016204;28;20035;-75
2023/02/10 03:48:39;;;;;;;10.25;7.32;;;;;;;;;;5017577;28;20496;-76
2023/02/10 03:51:05;;;;;;;6.90;6.35;;;;;;;;;;5019191;28;20042;-74
2023/02/10 03:53:31;;;;;;;9.80;8.98;;;;;;;;;;4995843;28;20034;-76
2023/02/10 03:55:58;;;;;;;6.00;5.38;;;;;;;;;;5006959;28;20105;-76
2023/02/10 03:58:24;;;;;;;8.52;7.55;;;;;;;;;;5007574;28;20039;-76
2023/02/10 04:00:50;;;;;;;9.10;8.23;;;;;;;;;;4997257;28;20034;-75
2023/02/10 04:03:16;;;;;;;8.40;7.55;;;;;;;;;;4997085;28;20034;-75
2023/02/10 04:05:42;;;;;;;9.00;7.85;;;;;;;;;;4993947;28;20065;-75
2023/02/10 04:08:08;;;;;;;8.02;6.53;;;;;;;;;;5007299;28;20040;-75
2023/02/10 04:10:34;;;;;;;7.10;6.53;;;;;;;;;;5011202;28;20123;-76
2023/02/10 04:13:00;;;;;;;10.80;9.80;;;;;;;;;;4989987;28;20487;-76
2023/02/10 04:15:27;;;;;;;10.05;9.05;;;;;;;;;;4992817;28;20038;-75
2023/02/10 04:17:53;;;;;;;7.40;6.03;;;;;;;;;;5010277;28;20034;-75
2023/02/10 04:20:19;;;;;;;8.57;7.32;;;;;;;;;;5010024;28;20566;-75
2023/02/10 04:22:45;;;;;;;10.82;8.30;;;;;;;;;;4992962;28;20038;-75
2023/02/10 04:25:11;;;;;;;10.63;8.35;;;;;;;;;;5009098;28;20036;-74
2023/02/10 04:27:38;;;;;;;9.77;8.25;;;;;;;;;;5010171;28;20037;-75
2023/02/10 04:30:05;;;;;;;8.98;8.13;;;;;;;;;;4992137;28;20057;-74
2023/02/10 04:32:31;;;;;;;12.13;8.85;;;;;;;;;;5009943;28;20175;-75
2023/02/10 04:34:57;;;;;;;11.00;9.90;;;;;;;;;;4996307;28;20042;-76
2023/02/10 04:37:24;;;;;;;9.15;8.32;;;;;;;;;;4990128;28;20038;-75
2023/02/10 04:39:50;;;;;;;9.60;8.60;;;;;;;;;;4990443;28;20030;-77
2023/02/10 04:42:16;;;;;;;9.88;8.98;;;;;;;;;;4997461;28;20530;-77
2023/02/10 04:44:42;;;;;;;10.55;9.55;;;;;;;;;;5001443;28;20030;-77
2023/02/10 04:47:08;;;;;;;10.75;9.20;;;;;;;;;;5005622;28;20037;-76
2023/02/10 04:49:34;;;;;;;5.85;5.38;;;;;;;;;;5008141;28;20513;-76
2023/02/10 04:52:00;;;;;;;8.02;7.35;;;;;;;;;;4987764;28;20047;-75
2023/02/10 04:54:26;;;;;;;13.23;10.07;;;;;;;;;;5009569;28;20040;-77
2023/02/10 04:56:52;;;;;;;11.63;7.95;;;;;;;;;;4997329;28;20093;-75
2023/02/10 04:59:18;;;;;;;8.60;7.53;;;;;;;;;;5015909;28;20037;-75
2023/02/10 05:01:44;;;;;;;12.60;8.85;;;;;;;;;;5016496;28;20046;-76
2023/02/10 05:04:11;;;;;;;9.45;8.60;;;;;;;;;;5017388;28;20042;-76
2023/02/10 05:06:37;;;;;;;8.23;7.20;;;;;;;;;;5017965;28;20041;-76
2023/02/10 05:09:03;;;;;;;9.02;7.80;;;;;;;;;;5016125;28;20568;-74
2023/02/10 05:11:29;;;;;;;12.50;11.23;;;;;;;;;;5015125;28;20040;-76
2023/02/10 05:13:55;;;;;;;8.40;7.60;;;;;;;;;;5013028;28;20054;-75
2023/02/10 05:16:22;;;;;;;9.73;8.63;;;;;;;;;;5009220;28;20380;-75
2023/02/10 05:18:47;;;;;;;11.02;9.93;;;;;;;;;;5011461;28;20038;-75
2023/02/10 05:21:14;;;;;;;8.35;7.55;;;;;;;;;;5011641;28;20266;-75
2023/02/10 05:23:40;;;;;;;11.95;10.85;;;;;;;;;;5011689;28;20496;-76
2023/02/10 05:26:06;;;;;;;14.77;13.10;;;;;;;;;;5013359;28;20045;-76
2023/02/10 05:28:32;;;;;;;12.40;11.05;;;;;;;;;;4996116;28;20117;-75
2023/02/10 05:30:58;;;;;;;13.48;10.20;;;;;;;;;;5013612;28;20045;-76
2023/02/10 05:33:24;;;;;;;15.70;10.55;;;;;;;;;;4995267;28;20089;-75
2023/02/10 05:35:50;;;;;;;15.07;11.65;;;;;;;;;;4995767;28;20047;-75
2023/02/10 05:38:16;;;;;;;12.20;8.65;;;;;;;;;;5011747;28;20408;-79
2023/02/10 05:40:42;;;;;;;14.00;11.05;;;;;;;;;;4996573;28;20508;-80
2023/02/10 05:43:09;;;;;;;15.38;11.63;;;;;;;;;;5013392;28;20041;-80
2023/02/10 05:45:35;;;;;;;18.25;13.02;;;;;;;;;;5012392;28;20060;-75
2023/02/10 05:48:05;;;;;;;10.38;9.40;;;;;;;;;;5012708;28;20652;-81
2023/02/10 05:50:31;;;;;;;12.43;10.68;;;;;;;;;;5004254;28;20148;-81
2023/02/10 05:52:57;;;;;;;13.77;10.70;;;;;;;;;;5012330;28;20030;-81
2023/02/10 05:55:23;;;;;;;13.57;12.30;;;;;;;;;;4984453;28;20034;-79
2023/02/10 05:57:51;;;;;;;11.63;8.25;;;;;;;;;;4986744;28;20038;-81
2023/02/10 06:00:17;;;;;;;18.00;13.18;;;;;;;;;;5009732;28;20046;-80
2023/02/10 06:02:43;;;;;;;17.50;14.75;;;;;;;;;;4987751;28;20022;-79
2023/02/10 06:05:09;;;;;;;9.57;8.60;;;;;;;;;;4991328;28;20512;-78
2023/02/10 06:07:35;;;;;;;12.10;10.68;;;;;;;;;;4989158;28;20034;-80
2023/02/10 06:10:01;;;;;;;12.10;10.57;;;;;;;;;;5021749;28;20038;-80
2023/02/10 06:12:28;;;;;;;17.75;14.32;;;;;;;;;;5011681;28;20045;-80
2023/02/10 06:14:54;;;;;;;15.02;13.52;;;;;;;;;;5014044;28;20129;-82
2023/02/10 06:17:19;;;;;;;10.20;9.30;;;;;;;;;;5008151;28;20036;-82
2023/02/10 06:19:46;;;;;;;8.55;7.65;;;;;;;;;;5019540;28;20472;-82
2023/02/10 06:22:11;;;;;;;11.70;10.60;;;;;;;;;;4999176;28;20068;-81
2023/02/10 06:24:38;;;;;;;12.57;11.38;;;;;;;;;;5014761;28;20077;-80
2023/02/10 06:27:05;;;;;;;13.63;11.55;;;;;;;;;;5012998;28;20045;-80
2023/02/10 06:29:31;;;;;;;11.48;10.23;;;;;;;;;;5012125;28;20508;-81
2023/02/10 06:31:57;;;;;;;8.40;7.57;;;;;;;;;;4997510;28;20061;-81
2023/02/10 06:34:23;;;;;;;10.35;8.90;;;;;;;;;;5001474;28;20042;-83
2023/02/10 06:36:49;;;;;;;10.50;8.98;;;;;;;;;;5018766;28;20041;-80
2023/02/10 06:39:15;;;;;;;8.65;7.72;;;;;;;;;;5026846;28;20029;-81
2023/02/10 06:41:41;;;;;;;8.70;7.90;;;;;;;;;;5032871;28;20116;-81
2023/02/10 06:44:08;;;;;;;12.98;10.70;;;;;;;;;;5016615;28;20030;-78
2023/02/10 06:46:34;;;;;;;11.65;10.43;;;;;;;;;;5009797;28;20454;-78
2023/02/10 06:49:01;;;;;;;13.40;11.95;;;;;;;;;;4993695;28;20076;-78
2023/02/10 06:51:27;;;;;;;11.30;9.75;;;;;;;;;;5010276;28;20042;-78
2023/02/10 06:53:53;;;;;;;11.68;9.68;;;;;;;;;;5009246;28;20637;-78
2023/02/10 06:56:19;;;;;;;10.48;9.38;;;;;;;;;;5002818;28;20038;-78
2023/02/10 06:58:45;;;;;;;17.10;11.85;;;;;;;;;;5008884;28;20065;-77
2023/02/10 07:01:11;;;;;;;12.70;9.70;;;;;;;;;;5004760;28;20731;-78
2023/02/10 07:03:38;;;;;;;11.48;9.88;;;;;;;;;;4991131;28;20040;-78
2023/02/10 07:06:04;;;;;;;11.70;8.57;;;;;;;;;;4990695;28;20645;-77
2023/02/10 07:08:29;;;;;;;10.60;8.63;;;;;;;;;;4990847;28;20095;-78
2023/02/10 07:10:55;;;;;;;16.08;10.77;;;;;;;;;;5008744;28;20415;-78
2023/02/10 07:13:22;;;;;;;14.30;10.07;;;;;;;;;;4976164;28;20556;-77
2023/02/10 07:15:47;;;;;;;12.23;8.93;;;;;;;;;;5010031;28;20756;-79
2023/02/10 07:18:14;;;;;;;12.23;10.77;;;;;;;;;;5006925;28;20030;-76
2023/02/10 07:20:40;;;;;;;12.02;10.82;;;;;;;;;;5010108;28;20137;-76
2023/02/10 07:23:06;;;;;;;13.35;10.95;;;;;;;;;;5010044;28;20602;-76
2023/02/10 07:25:32;;;;;;;9.20;8.05;;;;;;;;;;4992374;28;20124;-78
2023/02/10 07:27:58;;;;;;;12.23;9.80;;;;;;;;;;4992208;28;20030;-78
2023/02/10 07:30:24;;;;;;;11.18;9.90;;;;;;;;;;5009437;28;20108;-76
2023/02/10 07:32:50;;;;;;;13.82;11.05;;;;;;;;;;4976094;28;20074;-75
2023/02/10 07:35:16;;;;;;;10.05;9.05;;;;;;;;;;4992221;28;20034;-78
2023/02/10 07:37:42;;;;;;;12.10;10.48;;;;;;;;;;4992119;28;20060;-77
2023/02/10 07:40:08;;;;;;;10.65;8.20;;;;;;;;;;5010314;28;20041;-76
2023/02/10 07:42:34;;;;;;;12.27;9.52;;;;;;;;;;5005499;28;20042;-77
2023/02/10 07:45:23;;;;;;;10.73;9.75;;;;;;;;;;5009198;28;20091;-78
2023/02/10 07:47:49;;;;;;;10.93;9.93;;;;;;;;;;4992380;28;20118;-77
2023/02/10 07:50:15;;;;;;;11.68;10.48;;;;;;;;;;5000727;28;20046;-77
2023/02/10 07:52:43;;;;;;;9.68;8.80;;;;;;;;;;4989886;28;20030;-77
2023/02/10 07:55:09;;;;;;;10.10;9.10;;;;;;;;;;4994309;28;20512;-77
2023/02/10 07:57:38;;;;;;;12.38;10.70;;;;;;;;;;5007639;28;20053;-76
2023/02/10 08:00:05;;;;;;;8.38;7.00;;;;;;;;;;5009182;28;20034;-76
2023/02/10 08:02:38;;;;;;;12.70;10.25;;;;;;;;;;5009365;28;20034;-76
2023/02/10 08:05:04;;;;;;;9.80;8.13;;;;;;;;;;5009539;28;20033;-76
2023/02/10 08:07:31;;;;;;;8.45;7.57;;;;;;;;;;5009035;28;20029;-76
2023/02/10 08:09:57;;;;;;;9.07;7.15;;;;;;;;;;5009213;28;20061;-77
2023/02/10 08:12:22;;;;;;;9.13;8.23;;;;;;;;;;5004083;28;20034;-77
2023/02/10 08:14:48;;;;;;;10.45;9.40;;;;;;;;;;4992200;28;20049;-76
2023/02/10 08:17:14;;;;;;;10.07;9.18;;;;;;;;;;5009130;28;20119;-79
2023/02/10 08:19:40;;;;;;;10.45;8.38;;;;;;;;;;4992700;28;20034;-80
2023/02/10 08:22:07;;;;;;;11.73;9.52;;;;;;;;;;5010133;28;20048;-80
2023/02/10 08:24:33;;;;;;;12.15;8.63;;;;;;;;;;5010549;28;20048;-80
2023/02/10 08:26:59;;;;;;;9.73;8.75;;;;;;;;;;5005242;28;21030;-79
2023/02/10 08:29:25;;;;;;;5.72;4.95;;;;;;;;;;4997107;28;20060;-78
2023/02/10 08:31:51;;;;;;;9.93;8.93;;;;;;;;;;4974882;28;20034;-78
2023/02/10 08:34:18;;;;;;;9.07;7.57;;;;;;;;;;5010791;28;20041;-79
2023/02/10 08:36:44;;;;;;;8.77;7.95;;;;;;;;;;5031841;28;20037;-79
2023/02/10 08:39:10;;;;;;;10.20;8.43;;;;;;;;;;5041603;28;20044;-79
2023/02/10 08:41:36;;;;;;;14.10;10.07;;;;;;;;;;5036979;28;20037;-79
2023/02/10 08:44:02;;;;;;;7.50;6.80;;;;;;;;;;5003058;28;20083;-78
2023/02/10 08:46:28;;;;;;;8.20;7.50;;;;;;;;;;5016241;28;20515;-80
2023/02/10 08:48:54;;;;;;;11.82;10.35;;;;;;;;;;4984391;28;20030;-75
2023/02/10 08:51:21;;;;;;;9.50;8.60;;;;;;;;;;4989258;28;20052;-76
2023/02/10 08:53:47;;;;;;;10.75;8.95;;;;;;;;;;4988949;28;20033;-76
2023/02/10 08:56:14;;;;;;;11.85;8.77;;;;;;;;;;5002855;28;20124;-80
2023/02/10 08:58:40;;;;;;;7.65;6.60;;;;;;;;;;4991899;28;20038;-79
2023/02/10 09:01:13;;;;;;;10.10;9.10;;;;;;;;;;5009452;28;20026;-79
2023/02/10 09:03:40;;;;;;;7.15;5.90;;;;;;;;;;4990908;28;20088;-78
2023/02/10 09:06:06;;;;;;;4.65;4.25;;;;;;;;;;4986561;28;20069;-78
2023/02/10 09:08:31;;;;;;;7.78;7.15;;;;;;;;;;4973939;28;20504;-79
2023/02/10 09:10:57;;;;;;;9.85;8.88;;;;;;;;;;4989010;28;20046;-80
2023/02/10 09:13:24;;;;;;;7.05;6.38;;;;;;;;;;4988595;28;20056;-79
2023/02/10 09:15:50;;;;;;;10.05;8.65;;;;;;;;;;4990256;28;20413;-74
2023/02/10 09:18:16;;;;;;;7.65;6.95;;;;;;;;;;5001937;28;20923;-80
2023/02/10 09:20:43;;;;;;;11.75;10.65;;;;;;;;;;4969880;28;20064;-80
2023/02/10 09:23:08;;;;;;;9.40;8.40;;;;;;;;;;4977868;28;20416;-80
2023/02/10 09:25:35;;;;;;;7.90;7.20;;;;;;;;;;4980065;28;20026;-74
2023/02/10 09:28:01;;;;;;;10.32;7.18;;;;;;;;;;4988896;28;20816;-74
2023/02/10 09:30:27;;;;;;;7.97;7.25;;;;;;;;;;4987866;28;20043;-74
2023/02/10 09:32:52;;;;;;;7.10;6.43;;;;;;;;;;4988899;28;20045;-74
2023/02/10 09:35:19;;;;;;;7.53;6.63;;;;;;;;;;4991877;28;20236;-82
2023/02/10 09:37:45;;;;;;;7.80;7.03;;;;;;;;;;4972784;28;20038;-79
2023/02/10 09:40:21;;;;;;;9.40;8.60;;;;;;;;;;5002280;28;20808;-80
2023/02/10 09:42:53;;;;;;;8.32;7.50;;;;;;;;;;4975297;28;20034;-80
2023/02/10 09:45:21;;;;;;;8.35;7.53;;;;;;;;;;4985407;28;20120;-80
2023/02/10 09:47:50;;;;;;;7.47;6.65;;;;;;;;;;4968366;28;20037;-80
2023/02/10 09:50:35;;;;;;;7.38;6.68;;;;;;;;;;5005945;28;20045;-76
2023/02/10 09:53:17;;;;;;;8.13;7.30;;;;;;;;;;4994196;28;20025;-78
2023/02/10 09:55:51;;;;;;;7.03;6.32;;;;;;;;;;4983891;28;20500;-79
2023/02/10 09:58:22;;;;;;;10.50;8.30;;;;;;;;;;4990405;28;20037;-80
2023/02/10 10:00:49;;;;;;;6.95;6.35;;;;;;;;;;4989602;28;20084;-80
2023/02/10 10:03:19;;;;;;;9.50;7.97;;;;;;;;;;5009009;28;20042;-81
2023/02/10 10:05:46;;;;;;;10.15;7.22;;;;;;;;;;4988614;28;20030;-80
2023/02/10 10:08:14;;;;;;;8.80;7.55;;;;;;;;;;5013766;28;20037;-81
2023/02/10 10:10:41;;;;;;;7.70;6.97;;;;;;;;;;4994613;28;20447;-81
2023/02/10 10:13:10;;;;;;;10.18;7.30;;;;;;;;;;4978259;28;20093;-79
2023/02/10 10:15:37;;;;;;;9.30;7.45;;;;;;;;;;4974759;28;20046;-79
2023/02/10 10:18:11;;;;;;;12.32;8.02;;;;;;;;;;4979239;28;20064;-80
2023/02/10 10:20:43;;;;;;;5.60;5.10;;;;;;;;;;5008832;28;20045;-81
2023/02/10 10:23:27;;;;;;;6.72;5.78;;;;;;;;;;5014800;28;20127;-81
2023/02/10 10:25:54;;;;;;;7.43;6.68;;;;;;;;;;5013211;28;20088;-80
2023/02/10 10:28:32;;;;;;;7.93;6.18;;;;;;;;;;5013747;28;20033;-82
2023/02/10 10:31:17;;;;;;;10.23;8.40;;;;;;;;;;4997317;28;20054;-81
2023/02/10 10:33:53;;;;;;;10.05;6.57;;;;;;;;;;5011638;28;20034;-80
2023/02/10 10:36:20;;;;;;;7.38;6.68;;;;;;;;;;5023658;28;20045;-84
2023/02/10 10:38:50;;;;;;;6.22;5.30;;;;;;;;;;5024143;28;20054;-81
2023/02/10 10:41:16;;;;;;;11.20;7.60;;;;;;;;;;5017626;28;20056;-82
2023/02/10 10:43:45;;;;;;;6.55;5.85;;;;;;;;;;5019317;28;20095;-82
2023/02/10 10:46:31;;;;;;;7.85;7.05;;;;;;;;;;5022774;28;20081;-81
2023/02/10 10:48:57;;;;;;;11.05;7.75;;;;;;;;;;5025406;28;20543;-82
2023/02/10 10:51:23;;;;;;;6.10;5.50;;;;;;;;;;5006671;28;20044;-83
2023/02/10 10:53:56;;;;;;;9.50;8.55;;;;;;;;;;5030387;28;20044;-82
2023/02/10 10:56:34;;;;;;;7.15;6.55;;;;;;;;;;5031257;28;20097;-82
2023/02/10 10:59:00;;;;;;;8.93;8.07;;;;;;;;;;5019755;28;20048;-85
2023/02/10 11:01:37;;;;;;;9.70;7.65;;;;;;;;;;5033320;28;20037;-83
2023/02/10 11:04:07;;;;;;;7.68;6.93;;;;;;;;;;5033155;28;20038;-84
2023/02/10 11:06:34;;;;;;;9.20;8.20;;;;;;;;;;5016037;28;20038;-83
2023/02/10 11:09:00;;;;;;;7.45;6.75;;;;;;;;;;5016350;28;20020;-85
2023/02/10 11:11:34;;;;;;;7.78;6.90;;;;;;;;;;5016546;28;20025;-82
2023/02/10 11:14:00;;;;;;;7.10;6.40;;;;;;;;;;5036480;28;20069;-83
2023/02/10 11:16:26;;;;;;;7.35;6.05;;;;;;;;;;5031837;28;20034;-80
2023/02/10 11:18:56;;;;;;;7.95;6.93;;;;;;;;;;5015120;28;20060;-83
2023/02/10 11:21:32;;;;;;;9.65;8.68;;;;;;;;;;5010324;28;20038;-82
2023/02/10 11:23:58;;;;;;;10.95;9.15;;;;;;;;;;5020429;28;20041;-83
2023/02/10 11:26:24;;;;;;;9.10;8.30;;;;;;;;;;4987424;28;20420;-85
2023/02/10 11:28:50;;;;;;;10.05;9.02;;;;;;;;;;5012269;28;20049;-77
2023/02/10 11:31:42;;;;;;;6.68;6.10;;;;;;;;;;4974552;28;20492;-82
2023/02/10 11:34:15;;;;;;;6.65;5.07;;;;;;;;;;4987696;28;20049;-77
2023/02/10 11:36:41;;;;;;;8.02;7.30;;;;;;;;;;5010864;28;20038;-79
2023/02/10 11:39:16;;;;;;;8.25;5.75;;;;;;;;;;4993035;28;20087;-79
2023/02/10 11:41:41;;;;;;;9.70;8.68;;;;;;;;;;4977132;28;20033;-79
2023/02/10 11:44:24;;;;;;;8.05;6.35;;;;;;;;;;5010556;28;20610;-79
2023/02/10 11:47:12;;;;;;;7.38;6.18;;;;;;;;;;4992618;28;20042;-80
2023/02/10 11:49:41;;;;;;;8.82;8.02;;;;;;;;;;5010040;28;20052;-79
2023/02/10 11:52:07;;;;;;;7.15;6.45;;;;;;;;;;5008982;28;20048;-79
2023/02/10 11:54:35;;;;;;;8.00;6.40;;;;;;;;;;4991853;28;20038;-78
2023/02/10 12:00:15;;;;;;;5.88;5.28;;;;;;;;;;4960411;28;20512;-77
2023/02/10 12:02:49;;;;;;;8.88;6.70;;;;;;;;;;5009627;28;20149;-78
2023/02/10 12:05:18;;;;;;;9.10;8.20;;;;;;;;;;5011388;28;20034;-81
2023/02/10 12:07:47;;;;;;;8.70;7.60;;;;;;;;;;5013211;28;20504;-81
2023/02/10 12:10:17;;;;;;;8.48;6.38;;;;;;;;;;5014610;28;20042;-82
2023/02/10 12:12:56;;;;;;;7.45;6.72;;;;;;;;;;5009230;28;20050;-84
2023/02/10 12:15:34;;;;;;;12.38;9.18;;;;;;;;;;5024490;28;20479;-82
2023/02/10 12:18:14;;;;;;;8.80;8.10;;;;;;;;;;5009661;28;20033;-85
2023/02/10 12:20:44;;;;;;;10.30;7.28;;;;;;;;;;5023802;28;20041;-83
2023/02/10 12:23:16;;;;;;;8.40;7.57;;;;;;;;;;5018803;28;20467;-81
2023/02/10 12:26:01;;;;;;;7.40;6.60;;;;;;;;;;5021888;28;20029;-83
2023/02/10 12:28:39;;;;;;;8.50;7.70;;;;;;;;;;5019902;28;20040;-83
2023/02/10 12:31:09;;;;;;;8.35;7.38;;;;;;;;;;5007004;28;20065;-81
2023/02/10 12:33:41;;;;;;;9.40;8.52;;;;;;;;;;5043824;28;20032;-84
2023/02/10 12:36:16;;;;;;;7.32;6.45;;;;;;;;;;5026670;28;20060;-81
2023/02/10 12:38:51;;;;;;;11.20;7.22;;;;;;;;;;5033684;28;20029;-81
2023/02/10 12:41:20;;;;;;;11.48;8.52;;;;;;;;;;5041057;28;20084;-83
2023/02/10 12:43:52;;;;;;;13.35;8.55;;;;;;;;;;5046250;28;20037;-81
2023/02/10 12:46:21;;;;;;;8.60;7.80;;;;;;;;;;5021716;28;20038;-82
2023/02/10 12:49:05;;;;;;;9.90;8.10;;;;;;;;;;5034485;28;20010;-82
2023/02/10 12:51:50;;;;;;;12.15;9.13;;;;;;;;;;5034122;28;20053;-85
2023/02/10 12:54:21;;;;;;;9.00;7.88;;;;;;;;;;5033427;28;20014;-85
2023/02/10 12:59:27;;;;;;;9.23;7.25;;;;;;;;;;4949934;29;20064;-81
2023/02/10 13:01:59;;;;;;;8.03;6.70;;;;;;;;;;4936023;29;20032;-79
2023/02/10 13:04:25;;;;;;;;;;;;;;;;;;4929144;29;20283;-80
2023/02/10 13:07:09;;;;;;;15.45;7.60;;;;;;;;;;4933323;29;19921;-78
2023/02/10 13:09:45;;;;;;;9.13;6.95;;;;;;;;;;4932099;29;20423;-80
2023/02/10 13:12:11;;;;;;;8.60;5.93;;;;;;;;;;4930747;29;20036;-80
2023/02/10 13:14:37;;;;;;;9.73;7.20;;;;;;;;;;4935148;29;20031;-82
2023/02/10 13:17:03;;;;;;;9.70;7.82;;;;;;;;;;4930841;29;20132;-83
2023/02/10 13:19:48;;;;;;;13.77;9.93;;;;;;;;;;4944833;29;20044;-83
2023/02/10 13:22:33;;;;;;;8.43;7.63;;;;;;;;;;4945581;29;20032;-84
2023/02/10 13:25:05;;;;;;;15.70;9.00;;;;;;;;;;4920686;29;20038;-81
2023/02/10 13:27:38;;;;;;;8.40;7.57;;;;;;;;;;4936406;29;20063;-82
2023/02/10 13:30:13;;;;;;;8.35;6.63;;;;;;;;;;4933492;29;20050;-81
2023/02/10 13:32:40;;;;;;;10.88;8.20;;;;;;;;;;4929336;29;20047;-80
2023/02/10 13:35:07;;;;;;;9.02;7.40;;;;;;;;;;4932118;29;20046;-80
2023/02/10 13:37:37;;;;;;;11.30;8.88;;;;;;;;;;4931679;29;20044;-80
2023/02/10 13:40:04;;;;;;;10.63;9.57;;;;;;;;;;4915283;29;20537;-80
2023/02/10 13:42:32;;;;;;;14.80;7.10;;;;;;;;;;4937685;29;20050;-81
2023/02/10 13:44:58;;;;;;;8.25;6.63;;;;;;;;;;4907543;29;20126;-81
2023/02/10 13:47:35;;;;;;;7.47;5.80;;;;;;;;;;4936824;29;20104;-81
2023/02/10 13:50:03;;;;;;;8.68;7.07;;;;;;;;;;4919387;29;20036;-79
2023/02/10 13:52:32;;;;;;;15.95;9.93;;;;;;;;;;4920719;29;20062;-83
2023/02/10 13:54:58;;;;;;;9.57;8.20;;;;;;;;;;4929676;29;20450;-83
2023/02/10 13:57:31;;;;;;;10.32;7.80;;;;;;;;;;4923673;29;20055;-81
2023/02/10 14:00:17;;;;;;;13.02;9.40;;;;;;;;;;4909712;29;20079;-77
2023/02/10 14:02:45;;;;;;;7.15;6.45;;;;;;;;;;4931563;29;20051;-77
2023/02/10 14:05:28;;;;;;;10.57;8.60;;;;;;;;;;4922326;29;20032;-81
2023/02/10 14:07:55;;;;;;;8.88;7.10;;;;;;;;;;4916240;29;20032;-79
2023/02/10 14:10:21;;;;;;;13.20;7.38;;;;;;;;;;4917095;29;20047;-78
2023/02/10 14:13:13;;;;;;;9.63;8.63;;;;;;;;;;4936605;29;20483;-81
2023/02/10 14:15:39;;;;;;;7.68;6.35;;;;;;;;;;4914539;29;20039;-81
2023/02/10 14:18:07;;;;;;;12.55;7.15;;;;;;;;;;4932998;29;20743;-81
2023/02/10 14:20:34;;;;;;;10.93;6.00;;;;;;;;;;4914439;29;20038;-79
2023/02/10 14:23:00;;;;;;;8.07;6.70;;;;;;;;;;4935401;29;20036;-81
2023/02/10 14:25:26;;;;;;;9.45;7.07;;;;;;;;;;4934721;29;20035;-77
2023/02/10 14:27:54;;;;;;;9.93;7.63;;;;;;;;;;4936003;29;20040;-82
2023/02/10 14:30:21;;;;;;;7.88;6.85;;;;;;;;;;4943534;29;20526;-82
2023/02/10 14:32:46;;;;;;;8.73;7.82;;;;;;;;;;4927676;29;20066;-82
2023/02/10 14:35:21;;;;;;;10.18;8.55;;;;;;;;;;4922029;29;20039;-82
2023/02/10 14:37:50;;;;;;;9.35;7.88;;;;;;;;;;4924033;29;20032;-77
2023/02/10 14:40:17;;;;;;;18.60;8.43;;;;;;;;;;4915025;29;20048;-80
2023/02/10 14:42:43;;;;;;;8.77;6.47;;;;;;;;;;4922377;29;20063;-79
2023/02/10 14:45:19;;;;;;;9.25;6.57;;;;;;;;;;4948795;29;20044;-83
2023/02/10 14:47:45;;;;;;;10.70;7.88;;;;;;;;;;4953403;29;20035;-83
2023/02/10 14:50:25;;;;;;;10.23;8.85;;;;;;;;;;4925813;29;20231;-83